sensor_id;sensor_type;location;lat;lon;timestamp;temperature;humidity
12926;DHT22;6529;50.566;9.774;2022-07-29T00:00:04;20.00;70.00
12926;DHT22;6529;50.566;9.774;2022-07-29T00:02:30;20.00;68.10
12926;DHT22;6529;50.566;9.774;2022-07-29T00:04:57;19.90;65.30
12926;DHT22;6529;50.566;9.774;2022-07-29T00:07:23;19.90;64.70
12926;DHT22;6529;50.566;9.774;2022-07-29T00:09:48;20.00;65.30
12926;DHT22;6529;50.566;9.774;2022-07-29T00:12:14;20.10;62.20
12926;DHT22;6529;50.566;9.774;2022-07-29T00:14:39;20.20;62.00
12926;DHT22;6529;50.566;9.774;2022-07-29T00:17:05;20.20;62.20
12926;DHT22;6529;50.566;9.774;2022-07-29T00:19:31;20.20;61.30
12926;DHT22;6529;50.566;9.774;2022-07-29T00:21:56;20.20;61.40
12926;DHT22;6529;50.566;9.774;2022-07-29T00:24:22;20.20;64.20
12926;DHT22;6529;50.566;9.774;2022-07-29T00:26:47;20.20;62.70
12926;DHT22;6529;50.566;9.774;2022-07-29T00:29:13;20.30;61.60
12926;DHT22;6529;50.566;9.774;2022-07-29T00:31:39;20.30;61.90
12926;DHT22;6529;50.566;9.774;2022-07-29T00:34:04;20.30;61.80
12926;DHT22;6529;50.566;9.774;2022-07-29T00:36:31;20.30;63.20
12926;DHT22;6529;50.566;9.774;2022-07-29T00:39:00;20.30;63.00
12926;DHT22;6529;50.566;9.774;2022-07-29T00:41:25;20.30;63.60
12926;DHT22;6529;50.566;9.774;2022-07-29T00:43:51;20.30;63.00
12926;DHT22;6529;50.566;9.774;2022-07-29T00:46:16;20.20;64.00
12926;DHT22;6529;50.566;9.774;2022-07-29T00:48:42;20.10;62.80
12926;DHT22;6529;50.566;9.774;2022-07-29T00:51:08;20.10;64.10
12926;DHT22;6529;50.566;9.774;2022-07-29T00:53:35;20.00;64.00
12926;DHT22;6529;50.566;9.774;2022-07-29T00:56:01;20.00;63.50
12926;DHT22;6529;50.566;9.774;2022-07-29T00:58:27;20.00;63.20
12926;DHT22;6529;50.566;9.774;2022-07-29T01:00:53;20.00;63.30
12926;DHT22;6529;50.566;9.774;2022-07-29T01:03:19;19.90;63.20
12926;DHT22;6529;50.566;9.774;2022-07-29T01:05:45;19.90;63.10
12926;DHT22;6529;50.566;9.774;2022-07-29T01:08:13;19.90;63.90
12926;DHT22;6529;50.566;9.774;2022-07-29T01:10:39;19.90;63.10
12926;DHT22;6529;50.566;9.774;2022-07-29T01:13:06;19.90;63.80
12926;DHT22;6529;50.566;9.774;2022-07-29T01:15:34;19.80;63.40
12926;DHT22;6529;50.566;9.774;2022-07-29T01:18:11;19.80;64.50
12926;DHT22;6529;50.566;9.774;2022-07-29T01:32:11;19.60;66.20
12926;DHT22;6529;50.566;9.774;2022-07-29T01:37:52;19.70;65.40
12926;DHT22;6529;50.566;9.774;2022-07-29T01:40:36;19.60;65.00
12926;DHT22;6529;50.566;9.774;2022-07-29T01:43:10;19.60;65.40
12926;DHT22;6529;50.566;9.774;2022-07-29T01:46:01;19.60;65.70
12926;DHT22;6529;50.566;9.774;2022-07-29T01:48:37;19.60;66.10
12926;DHT22;6529;50.566;9.774;2022-07-29T01:51:09;19.70;67.10
12926;DHT22;6529;50.566;9.774;2022-07-29T01:56:19;19.70;68.50
12926;DHT22;6529;50.566;9.774;2022-07-29T01:58:47;19.60;69.10
12926;DHT22;6529;50.566;9.774;2022-07-29T02:01:15;19.60;69.60
12926;DHT22;6529;50.566;9.774;2022-07-29T02:03:44;19.60;70.50
12926;DHT22;6529;50.566;9.774;2022-07-29T02:06:12;19.60;70.80
12926;DHT22;6529;50.566;9.774;2022-07-29T02:08:40;19.50;71.10
12926;DHT22;6529;50.566;9.774;2022-07-29T02:11:07;19.40;72.00
12926;DHT22;6529;50.566;9.774;2022-07-29T02:13:35;19.40;72.60
12926;DHT22;6529;50.566;9.774;2022-07-29T02:16:03;19.30;73.50
12926;DHT22;6529;50.566;9.774;2022-07-29T02:18:31;19.30;74.20
12926;DHT22;6529;50.566;9.774;2022-07-29T02:20:59;19.30;73.80
12926;DHT22;6529;50.566;9.774;2022-07-29T02:23:26;19.30;74.40
12926;DHT22;6529;50.566;9.774;2022-07-29T02:25:55;19.10;77.00
12926;DHT22;6529;50.566;9.774;2022-07-29T02:28:27;19.00;78.90
12926;DHT22;6529;50.566;9.774;2022-07-29T02:30:54;19.00;79.60
12926;DHT22;6529;50.566;9.774;2022-07-29T02:33:21;18.90;79.60
12926;DHT22;6529;50.566;9.774;2022-07-29T02:35:49;18.90;78.90
12926;DHT22;6529;50.566;9.774;2022-07-29T02:38:16;18.90;76.60
12926;DHT22;6529;50.566;9.774;2022-07-29T02:41:10;18.90;76.40
12926;DHT22;6529;50.566;9.774;2022-07-29T02:43:37;18.90;77.70
12926;DHT22;6529;50.566;9.774;2022-07-29T02:46:06;19.00;76.60
12926;DHT22;6529;50.566;9.774;2022-07-29T02:48:43;18.90;78.70
12926;DHT22;6529;50.566;9.774;2022-07-29T02:51:22;18.80;80.20
12926;DHT22;6529;50.566;9.774;2022-07-29T02:53:53;18.90;80.80
12926;DHT22;6529;50.566;9.774;2022-07-29T02:56:26;18.90;80.80
12926;DHT22;6529;50.566;9.774;2022-07-29T02:58:58;18.90;82.00
12926;DHT22;6529;50.566;9.774;2022-07-29T03:01:30;18.80;82.70
12926;DHT22;6529;50.566;9.774;2022-07-29T03:04:00;18.70;83.80
12926;DHT22;6529;50.566;9.774;2022-07-29T03:06:27;18.60;85.00
12926;DHT22;6529;50.566;9.774;2022-07-29T03:08:54;18.40;86.80
12926;DHT22;6529;50.566;9.774;2022-07-29T03:11:21;18.30;88.90
12926;DHT22;6529;50.566;9.774;2022-07-29T03:13:47;18.20;90.40
12926;DHT22;6529;50.566;9.774;2022-07-29T03:16:13;18.00;92.10
12926;DHT22;6529;50.566;9.774;2022-07-29T03:18:39;18.10;94.30
12926;DHT22;6529;50.566;9.774;2022-07-29T03:21:05;18.00;96.10
12926;DHT22;6529;50.566;9.774;2022-07-29T03:23:31;18.00;96.20
12926;DHT22;6529;50.566;9.774;2022-07-29T03:25:57;18.10;97.00
12926;DHT22;6529;50.566;9.774;2022-07-29T03:28:23;18.20;97.10
12926;DHT22;6529;50.566;9.774;2022-07-29T03:30:49;18.10;96.50
12926;DHT22;6529;50.566;9.774;2022-07-29T03:33:15;18.20;97.10
12926;DHT22;6529;50.566;9.774;2022-07-29T03:35:41;18.20;97.40
12926;DHT22;6529;50.566;9.774;2022-07-29T03:38:07;18.20;96.60
12926;DHT22;6529;50.566;9.774;2022-07-29T03:40:38;18.20;97.10
12926;DHT22;6529;50.566;9.774;2022-07-29T03:43:06;18.20;95.80
12926;DHT22;6529;50.566;9.774;2022-07-29T03:45:33;18.10;97.10
12926;DHT22;6529;50.566;9.774;2022-07-29T03:48:02;18.10;98.20
12926;DHT22;6529;50.566;9.774;2022-07-29T03:50:30;18.10;98.10
12926;DHT22;6529;50.566;9.774;2022-07-29T03:52:56;18.10;99.80
12926;DHT22;6529;50.566;9.774;2022-07-29T03:55:21;18.00;99.90
12926;DHT22;6529;50.566;9.774;2022-07-29T03:57:49;17.90;99.90
12926;DHT22;6529;50.566;9.774;2022-07-29T04:00:15;17.70;99.90
12926;DHT22;6529;50.566;9.774;2022-07-29T04:02:41;17.50;99.90
12926;DHT22;6529;50.566;9.774;2022-07-29T04:05:12;17.60;99.90
12926;DHT22;6529;50.566;9.774;2022-07-29T04:07:38;17.60;99.90
12926;DHT22;6529;50.566;9.774;2022-07-29T04:10:04;17.50;99.90
12926;DHT22;6529;50.566;9.774;2022-07-29T04:12:30;17.40;99.90
12926;DHT22;6529;50.566;9.774;2022-07-29T04:14:55;17.50;99.90
12926;DHT22;6529;50.566;9.774;2022-07-29T04:17:21;17.50;99.90
12926;DHT22;6529;50.566;9.774;2022-07-29T04:19:47;17.60;99.90
12926;DHT22;6529;50.566;9.774;2022-07-29T04:22:12;17.70;99.90
12926;DHT22;6529;50.566;9.774;2022-07-29T04:24:38;17.80;99.90
12926;DHT22;6529;50.566;9.774;2022-07-29T04:27:03;17.70;99.90
12926;DHT22;6529;50.566;9.774;2022-07-29T04:29:29;17.60;99.90
12926;DHT22;6529;50.566;9.774;2022-07-29T04:31:54;17.70;99.90
12926;DHT22;6529;50.566;9.774;2022-07-29T04:34:20;17.70;99.90
12926;DHT22;6529;50.566;9.774;2022-07-29T04:36:45;17.60;99.90
12926;DHT22;6529;50.566;9.774;2022-07-29T04:39:11;17.70;99.90
12926;DHT22;6529;50.566;9.774;2022-07-29T04:41:37;17.80;99.90
12926;DHT22;6529;50.566;9.774;2022-07-29T04:44:03;17.80;99.90
12926;DHT22;6529;50.566;9.774;2022-07-29T04:46:31;17.80;99.90
12926;DHT22;6529;50.566;9.774;2022-07-29T04:48:56;18.00;99.90
12926;DHT22;6529;50.566;9.774;2022-07-29T04:51:22;18.00;99.90
12926;DHT22;6529;50.566;9.774;2022-07-29T04:53:47;17.90;99.90
12926;DHT22;6529;50.566;9.774;2022-07-29T04:56:13;18.00;99.90
12926;DHT22;6529;50.566;9.774;2022-07-29T04:58:38;17.90;99.90
12926;DHT22;6529;50.566;9.774;2022-07-29T05:01:04;17.90;99.90
12926;DHT22;6529;50.566;9.774;2022-07-29T05:03:30;18.00;99.90
12926;DHT22;6529;50.566;9.774;2022-07-29T05:05:56;18.10;99.90
12926;DHT22;6529;50.566;9.774;2022-07-29T05:08:21;18.10;99.90
12926;DHT22;6529;50.566;9.774;2022-07-29T05:10:47;18.10;99.90
12926;DHT22;6529;50.566;9.774;2022-07-29T05:13:13;18.10;99.90
12926;DHT22;6529;50.566;9.774;2022-07-29T05:15:38;18.20;99.90
12926;DHT22;6529;50.566;9.774;2022-07-29T05:18:04;18.20;99.90
12926;DHT22;6529;50.566;9.774;2022-07-29T05:20:31;18.20;99.90
12926;DHT22;6529;50.566;9.774;2022-07-29T05:22:59;18.30;99.90
12926;DHT22;6529;50.566;9.774;2022-07-29T05:25:28;18.30;99.90
12926;DHT22;6529;50.566;9.774;2022-07-29T05:27:54;18.30;99.90
12926;DHT22;6529;50.566;9.774;2022-07-29T05:30:20;18.30;99.90
12926;DHT22;6529;50.566;9.774;2022-07-29T05:32:47;18.40;99.90
12926;DHT22;6529;50.566;9.774;2022-07-29T05:35:13;18.40;99.90
12926;DHT22;6529;50.566;9.774;2022-07-29T05:37:40;18.50;99.90
12926;DHT22;6529;50.566;9.774;2022-07-29T05:40:06;18.60;99.90
12926;DHT22;6529;50.566;9.774;2022-07-29T05:42:32;18.70;99.90
12926;DHT22;6529;50.566;9.774;2022-07-29T05:44:58;18.60;99.90
12926;DHT22;6529;50.566;9.774;2022-07-29T05:47:24;18.70;99.90
12926;DHT22;6529;50.566;9.774;2022-07-29T05:49:50;18.70;99.90
12926;DHT22;6529;50.566;9.774;2022-07-29T05:52:16;18.80;99.90
12926;DHT22;6529;50.566;9.774;2022-07-29T05:54:42;18.80;99.90
12926;DHT22;6529;50.566;9.774;2022-07-29T05:57:08;18.80;99.90
12926;DHT22;6529;50.566;9.774;2022-07-29T05:59:37;18.90;99.90
12926;DHT22;6529;50.566;9.774;2022-07-29T06:02:03;18.90;99.90
12926;DHT22;6529;50.566;9.774;2022-07-29T06:04:31;18.90;99.90
12926;DHT22;6529;50.566;9.774;2022-07-29T06:06:56;18.80;99.90
12926;DHT22;6529;50.566;9.774;2022-07-29T06:09:22;18.80;99.90
12926;DHT22;6529;50.566;9.774;2022-07-29T06:11:48;18.80;99.90
12926;DHT22;6529;50.566;9.774;2022-07-29T06:14:14;18.90;99.90
12926;DHT22;6529;50.566;9.774;2022-07-29T06:16:39;18.80;99.90
12926;DHT22;6529;50.566;9.774;2022-07-29T06:19:05;18.80;99.90
12926;DHT22;6529;50.566;9.774;2022-07-29T06:21:31;18.80;99.90
12926;DHT22;6529;50.566;9.774;2022-07-29T06:23:57;18.70;99.90
12926;DHT22;6529;50.566;9.774;2022-07-29T06:26:22;18.70;99.90
12926;DHT22;6529;50.566;9.774;2022-07-29T06:28:48;18.80;99.90
12926;DHT22;6529;50.566;9.774;2022-07-29T06:31:14;18.70;99.90
12926;DHT22;6529;50.566;9.774;2022-07-29T06:33:39;18.70;99.90
12926;DHT22;6529;50.566;9.774;2022-07-29T06:36:05;18.70;99.90
12926;DHT22;6529;50.566;9.774;2022-07-29T06:38:32;18.60;99.90
12926;DHT22;6529;50.566;9.774;2022-07-29T06:40:58;18.30;99.90
12926;DHT22;6529;50.566;9.774;2022-07-29T06:43:39;18.10;99.90
12926;DHT22;6529;50.566;9.774;2022-07-29T06:46:12;17.90;99.90
12926;DHT22;6529;50.566;9.774;2022-07-29T06:48:38;17.80;99.90
12926;DHT22;6529;50.566;9.774;2022-07-29T06:51:05;17.80;99.90
12926;DHT22;6529;50.566;9.774;2022-07-29T06:53:31;17.80;99.90
12926;DHT22;6529;50.566;9.774;2022-07-29T06:55:58;17.80;99.90
12926;DHT22;6529;50.566;9.774;2022-07-29T06:58:25;17.90;99.90
12926;DHT22;6529;50.566;9.774;2022-07-29T07:00:51;17.80;99.90
12926;DHT22;6529;50.566;9.774;2022-07-29T07:03:17;17.70;99.90
12926;DHT22;6529;50.566;9.774;2022-07-29T07:05:43;17.50;99.90
12926;DHT22;6529;50.566;9.774;2022-07-29T07:08:10;17.50;99.90
12926;DHT22;6529;50.566;9.774;2022-07-29T07:10:35;17.50;99.90
12926;DHT22;6529;50.566;9.774;2022-07-29T07:13:01;17.30;99.90
12926;DHT22;6529;50.566;9.774;2022-07-29T07:15:28;17.30;99.90
12926;DHT22;6529;50.566;9.774;2022-07-29T07:17:53;17.30;99.90
12926;DHT22;6529;50.566;9.774;2022-07-29T07:20:19;17.30;99.90
12926;DHT22;6529;50.566;9.774;2022-07-29T07:22:45;17.10;99.90
12926;DHT22;6529;50.566;9.774;2022-07-29T07:25:11;17.00;99.90
12926;DHT22;6529;50.566;9.774;2022-07-29T07:27:37;16.80;99.90
12926;DHT22;6529;50.566;9.774;2022-07-29T07:30:05;16.80;99.90
12926;DHT22;6529;50.566;9.774;2022-07-29T07:32:32;16.90;99.90
12926;DHT22;6529;50.566;9.774;2022-07-29T07:34:57;16.90;99.90
12926;DHT22;6529;50.566;9.774;2022-07-29T07:37:24;17.10;99.90
12926;DHT22;6529;50.566;9.774;2022-07-29T07:39:51;17.50;99.90
12926;DHT22;6529;50.566;9.774;2022-07-29T07:42:17;18.00;99.90
12926;DHT22;6529;50.566;9.774;2022-07-29T07:44:43;18.60;99.90
12926;DHT22;6529;50.566;9.774;2022-07-29T07:47:14;19.00;99.90
12926;DHT22;6529;50.566;9.774;2022-07-29T07:49:39;19.30;99.90
12926;DHT22;6529;50.566;9.774;2022-07-29T07:52:05;19.20;99.90
12926;DHT22;6529;50.566;9.774;2022-07-29T07:54:31;18.80;99.90
12926;DHT22;6529;50.566;9.774;2022-07-29T07:56:56;18.60;99.90
12926;DHT22;6529;50.566;9.774;2022-07-29T07:59:22;18.60;99.90
12926;DHT22;6529;50.566;9.774;2022-07-29T08:01:48;18.80;99.90
12926;DHT22;6529;50.566;9.774;2022-07-29T08:04:14;18.80;99.90
12926;DHT22;6529;50.566;9.774;2022-07-29T08:06:39;19.00;99.90
12926;DHT22;6529;50.566;9.774;2022-07-29T08:09:05;19.00;99.90
12926;DHT22;6529;50.566;9.774;2022-07-29T08:11:31;18.80;99.90
12926;DHT22;6529;50.566;9.774;2022-07-29T08:13:57;18.50;99.90
12926;DHT22;6529;50.566;9.774;2022-07-29T08:16:22;18.20;99.90
12926;DHT22;6529;50.566;9.774;2022-07-29T08:18:50;18.10;99.90
12926;DHT22;6529;50.566;9.774;2022-07-29T08:21:16;18.50;99.90
12926;DHT22;6529;50.566;9.774;2022-07-29T08:23:45;18.90;99.90
12926;DHT22;6529;50.566;9.774;2022-07-29T08:26:13;19.00;99.90
12926;DHT22;6529;50.566;9.774;2022-07-29T08:28:40;19.20;99.90
12926;DHT22;6529;50.566;9.774;2022-07-29T08:31:06;19.20;99.90
12926;DHT22;6529;50.566;9.774;2022-07-29T08:33:32;19.00;99.90
12926;DHT22;6529;50.566;9.774;2022-07-29T08:35:58;18.90;99.90
12926;DHT22;6529;50.566;9.774;2022-07-29T08:38:24;18.30;99.90
12926;DHT22;6529;50.566;9.774;2022-07-29T08:40:52;17.90;99.90
12926;DHT22;6529;50.566;9.774;2022-07-29T08:43:18;17.90;99.90
12926;DHT22;6529;50.566;9.774;2022-07-29T08:45:49;18.00;99.90
12926;DHT22;6529;50.566;9.774;2022-07-29T08:48:18;18.60;99.90
12926;DHT22;6529;50.566;9.774;2022-07-29T08:50:45;18.90;99.90
12926;DHT22;6529;50.566;9.774;2022-07-29T08:53:13;18.80;99.90
12926;DHT22;6529;50.566;9.774;2022-07-29T08:55:41;18.80;99.90
12926;DHT22;6529;50.566;9.774;2022-07-29T08:58:07;18.80;99.90
12926;DHT22;6529;50.566;9.774;2022-07-29T09:00:36;18.80;99.90
12926;DHT22;6529;50.566;9.774;2022-07-29T09:03:02;18.90;99.90
12926;DHT22;6529;50.566;9.774;2022-07-29T09:05:30;19.00;99.90
12926;DHT22;6529;50.566;9.774;2022-07-29T09:07:56;18.80;99.90
12926;DHT22;6529;50.566;9.774;2022-07-29T09:10:22;19.20;99.90
12926;DHT22;6529;50.566;9.774;2022-07-29T09:12:47;19.20;99.90
12926;DHT22;6529;50.566;9.774;2022-07-29T09:15:14;19.10;99.90
12926;DHT22;6529;50.566;9.774;2022-07-29T09:17:45;18.90;99.90
12926;DHT22;6529;50.566;9.774;2022-07-29T09:20:13;19.00;99.90
12926;DHT22;6529;50.566;9.774;2022-07-29T09:22:39;18.90;99.90
12926;DHT22;6529;50.566;9.774;2022-07-29T09:25:05;19.00;99.90
12926;DHT22;6529;50.566;9.774;2022-07-29T09:27:31;19.20;99.90
12926;DHT22;6529;50.566;9.774;2022-07-29T09:32:24;19.50;99.90
12926;DHT22;6529;50.566;9.774;2022-07-29T09:34:49;19.90;99.90
12926;DHT22;6529;50.566;9.774;2022-07-29T09:37:30;20.30;99.90
12926;DHT22;6529;50.566;9.774;2022-07-29T09:39:56;20.30;99.90
12926;DHT22;6529;50.566;9.774;2022-07-29T09:42:29;20.40;99.90
12926;DHT22;6529;50.566;9.774;2022-07-29T09:44:55;20.40;99.90
12926;DHT22;6529;50.566;9.774;2022-07-29T09:47:20;20.40;99.90
12926;DHT22;6529;50.566;9.774;2022-07-29T09:52:20;20.50;99.90
12926;DHT22;6529;50.566;9.774;2022-07-29T09:54:45;20.50;99.90
12926;DHT22;6529;50.566;9.774;2022-07-29T09:57:28;20.50;99.90
12926;DHT22;6529;50.566;9.774;2022-07-29T09:59:59;20.60;99.90
12926;DHT22;6529;50.566;9.774;2022-07-29T10:02:30;20.70;99.90
12926;DHT22;6529;50.566;9.774;2022-07-29T10:04:56;20.70;99.90
12926;DHT22;6529;50.566;9.774;2022-07-29T10:07:22;20.70;99.90
12926;DHT22;6529;50.566;9.774;2022-07-29T10:09:56;20.70;99.90
12926;DHT22;6529;50.566;9.774;2022-07-29T10:12:21;21.00;99.90
12926;DHT22;6529;50.566;9.774;2022-07-29T10:14:48;21.10;99.90
12926;DHT22;6529;50.566;9.774;2022-07-29T10:17:16;21.00;99.90
12926;DHT22;6529;50.566;9.774;2022-07-29T10:19:42;21.30;99.90
12926;DHT22;6529;50.566;9.774;2022-07-29T10:22:09;21.90;99.90
12926;DHT22;6529;50.566;9.774;2022-07-29T10:24:36;22.40;99.90
12926;DHT22;6529;50.566;9.774;2022-07-29T10:27:07;22.80;99.90
12926;DHT22;6529;50.566;9.774;2022-07-29T10:29:33;22.90;99.90
12926;DHT22;6529;50.566;9.774;2022-07-29T10:35:13;23.30;99.90
12926;DHT22;6529;50.566;9.774;2022-07-29T10:46:20;24.00;99.90
12926;DHT22;6529;50.566;9.774;2022-07-29T10:52:03;24.20;99.90
12926;DHT22;6529;50.566;9.774;2022-07-29T10:57:18;24.80;99.90
12926;DHT22;6529;50.566;9.774;2022-07-29T10:59:47;25.00;99.90
12926;DHT22;6529;50.566;9.774;2022-07-29T11:07:35;24.90;99.90
12926;DHT22;6529;50.566;9.774;2022-07-29T11:15:04;25.70;99.90
12926;DHT22;6529;50.566;9.774;2022-07-29T11:20:43;25.80;99.90
12926;DHT22;6529;50.566;9.774;2022-07-29T11:23:30;25.90;99.90
12926;DHT22;6529;50.566;9.774;2022-07-29T11:29:00;26.30;99.90
12926;DHT22;6529;50.566;9.774;2022-07-29T11:33:56;26.50;99.90
12926;DHT22;6529;50.566;9.774;2022-07-29T11:36:22;26.50;99.90
12926;DHT22;6529;50.566;9.774;2022-07-29T11:38:47;26.70;99.90
12926;DHT22;6529;50.566;9.774;2022-07-29T11:41:23;26.70;99.90
12926;DHT22;6529;50.566;9.774;2022-07-29T11:44:07;26.90;99.90
12926;DHT22;6529;50.566;9.774;2022-07-29T11:49:12;27.20;99.90
12926;DHT22;6529;50.566;9.774;2022-07-29T11:51:38;27.20;99.90
12926;DHT22;6529;50.566;9.774;2022-07-29T11:54:05;27.40;99.90
12926;DHT22;6529;50.566;9.774;2022-07-29T11:56:31;27.70;99.90
12926;DHT22;6529;50.566;9.774;2022-07-29T11:59:07;27.90;99.90
12926;DHT22;6529;50.566;9.774;2022-07-29T12:01:36;28.10;99.90
12926;DHT22;6529;50.566;9.774;2022-07-29T12:04:05;28.00;99.90
12926;DHT22;6529;50.566;9.774;2022-07-29T12:06:32;27.80;99.90
12926;DHT22;6529;50.566;9.774;2022-07-29T12:08:58;27.70;99.90
12926;DHT22;6529;50.566;9.774;2022-07-29T12:11:24;27.40;99.90
12926;DHT22;6529;50.566;9.774;2022-07-29T12:13:51;27.50;99.90
12926;DHT22;6529;50.566;9.774;2022-07-29T12:16:20;27.50;99.90
12926;DHT22;6529;50.566;9.774;2022-07-29T12:19:00;27.50;99.90
12926;DHT22;6529;50.566;9.774;2022-07-29T12:21:26;27.80;99.90
12926;DHT22;6529;50.566;9.774;2022-07-29T12:23:53;28.10;98.80
12926;DHT22;6529;50.566;9.774;2022-07-29T12:26:20;28.40;98.20
12926;DHT22;6529;50.566;9.774;2022-07-29T12:28:46;28.70;98.80
12926;DHT22;6529;50.566;9.774;2022-07-29T12:31:15;29.00;97.30
12926;DHT22;6529;50.566;9.774;2022-07-29T12:33:41;29.10;96.70
12926;DHT22;6529;50.566;9.774;2022-07-29T12:36:08;29.40;95.20
12926;DHT22;6529;50.566;9.774;2022-07-29T12:38:37;29.60;95.40
12926;DHT22;6529;50.566;9.774;2022-07-29T12:41:05;30.00;94.20
12926;DHT22;6529;50.566;9.774;2022-07-29T12:43:32;30.20;93.70
12926;DHT22;6529;50.566;9.774;2022-07-29T12:46:12;30.30;94.10
12926;DHT22;6529;50.566;9.774;2022-07-29T12:48:40;30.60;92.00
12926;DHT22;6529;50.566;9.774;2022-07-29T12:51:07;30.70;90.70
12926;DHT22;6529;50.566;9.774;2022-07-29T12:53:34;31.00;88.20
12926;DHT22;6529;50.566;9.774;2022-07-29T12:56:00;31.00;83.90
12926;DHT22;6529;50.566;9.774;2022-07-29T12:58:33;31.20;85.60
12926;DHT22;6529;50.566;9.774;2022-07-29T13:01:18;31.00;83.00
12926;DHT22;6529;50.566;9.774;2022-07-29T13:03:51;31.20;79.20
12926;DHT22;6529;50.566;9.774;2022-07-29T13:09:05;31.40;65.00
12926;DHT22;6529;50.566;9.774;2022-07-29T13:11:37;31.20;61.10
12926;DHT22;6529;50.566;9.774;2022-07-29T13:14:04;31.10;58.30
12926;DHT22;6529;50.566;9.774;2022-07-29T13:16:29;31.40;59.10
12926;DHT22;6529;50.566;9.774;2022-07-29T13:19:11;31.30;57.50
12926;DHT22;6529;50.566;9.774;2022-07-29T13:21:38;31.40;59.40
12926;DHT22;6529;50.566;9.774;2022-07-29T13:24:07;31.20;55.50
12926;DHT22;6529;50.566;9.774;2022-07-29T13:26:34;31.30;57.20
12926;DHT22;6529;50.566;9.774;2022-07-29T13:28:59;31.00;55.00
12926;DHT22;6529;50.566;9.774;2022-07-29T13:31:25;30.60;56.00
12926;DHT22;6529;50.566;9.774;2022-07-29T13:33:51;30.50;57.30
12926;DHT22;6529;50.566;9.774;2022-07-29T13:36:17;31.10;58.70
12926;DHT22;6529;50.566;9.774;2022-07-29T13:38:42;31.50;55.70
12926;DHT22;6529;50.566;9.774;2022-07-29T13:41:08;31.60;53.90
12926;DHT22;6529;50.566;9.774;2022-07-29T13:43:34;31.60;52.50
12926;DHT22;6529;50.566;9.774;2022-07-29T13:46:00;31.80;53.00
12926;DHT22;6529;50.566;9.774;2022-07-29T13:48:26;31.50;52.10
12926;DHT22;6529;50.566;9.774;2022-07-29T13:50:51;31.50;51.50
12926;DHT22;6529;50.566;9.774;2022-07-29T13:53:17;31.30;52.80
12926;DHT22;6529;50.566;9.774;2022-07-29T13:55:43;31.00;52.60
12926;DHT22;6529;50.566;9.774;2022-07-29T13:58:08;31.10;53.40
12926;DHT22;6529;50.566;9.774;2022-07-29T14:00:34;31.20;52.30
12926;DHT22;6529;50.566;9.774;2022-07-29T14:02:59;31.30;53.60
12926;DHT22;6529;50.566;9.774;2022-07-29T14:05:25;31.30;51.50
12926;DHT22;6529;50.566;9.774;2022-07-29T14:07:51;31.30;51.20
12926;DHT22;6529;50.566;9.774;2022-07-29T14:10:16;31.60;51.30
12926;DHT22;6529;50.566;9.774;2022-07-29T14:12:42;31.80;52.00
12926;DHT22;6529;50.566;9.774;2022-07-29T14:15:08;32.20;51.90
12926;DHT22;6529;50.566;9.774;2022-07-29T14:17:34;32.00;49.80
12926;DHT22;6529;50.566;9.774;2022-07-29T14:19:59;32.00;52.40
12926;DHT22;6529;50.566;9.774;2022-07-29T14:22:25;32.50;50.00
12926;DHT22;6529;50.566;9.774;2022-07-29T14:24:51;32.30;49.90
12926;DHT22;6529;50.566;9.774;2022-07-29T14:27:16;32.10;50.60
12926;DHT22;6529;50.566;9.774;2022-07-29T14:29:42;31.80;50.10
12926;DHT22;6529;50.566;9.774;2022-07-29T14:32:08;31.10;50.70
12926;DHT22;6529;50.566;9.774;2022-07-29T14:34:36;30.70;51.10
12926;DHT22;6529;50.566;9.774;2022-07-29T14:37:02;30.50;52.20
12926;DHT22;6529;50.566;9.774;2022-07-29T14:39:30;30.50;51.70
12926;DHT22;6529;50.566;9.774;2022-07-29T14:41:56;30.90;53.40
12926;DHT22;6529;50.566;9.774;2022-07-29T14:44:22;31.40;52.70
12926;DHT22;6529;50.566;9.774;2022-07-29T14:46:48;31.60;51.20
12926;DHT22;6529;50.566;9.774;2022-07-29T14:49:14;31.50;52.60
12926;DHT22;6529;50.566;9.774;2022-07-29T14:51:40;31.70;53.60
12926;DHT22;6529;50.566;9.774;2022-07-29T14:54:06;31.90;49.60
12926;DHT22;6529;50.566;9.774;2022-07-29T14:56:31;32.10;49.60
12926;DHT22;6529;50.566;9.774;2022-07-29T14:58:57;32.00;51.20
12926;DHT22;6529;50.566;9.774;2022-07-29T15:01:23;32.10;50.10
12926;DHT22;6529;50.566;9.774;2022-07-29T15:03:50;32.10;52.60
12926;DHT22;6529;50.566;9.774;2022-07-29T15:06:15;32.30;52.30
12926;DHT22;6529;50.566;9.774;2022-07-29T15:08:41;32.20;49.30
12926;DHT22;6529;50.566;9.774;2022-07-29T15:11:07;32.00;49.20
12926;DHT22;6529;50.566;9.774;2022-07-29T15:13:33;31.70;50.70
12926;DHT22;6529;50.566;9.774;2022-07-29T15:15:59;31.80;52.60
12926;DHT22;6529;50.566;9.774;2022-07-29T15:18:24;31.80;50.40
12926;DHT22;6529;50.566;9.774;2022-07-29T15:20:50;31.70;50.90
12926;DHT22;6529;50.566;9.774;2022-07-29T15:23:16;31.40;49.40
12926;DHT22;6529;50.566;9.774;2022-07-29T15:25:41;30.90;52.30
12926;DHT22;6529;50.566;9.774;2022-07-29T15:28:07;30.70;51.70
12926;DHT22;6529;50.566;9.774;2022-07-29T15:30:33;30.50;51.60
12926;DHT22;6529;50.566;9.774;2022-07-29T15:33:01;30.50;53.10
12926;DHT22;6529;50.566;9.774;2022-07-29T15:35:26;30.40;53.30
12926;DHT22;6529;50.566;9.774;2022-07-29T15:37:52;30.00;53.70
12926;DHT22;6529;50.566;9.774;2022-07-29T15:40:18;29.90;54.20
12926;DHT22;6529;50.566;9.774;2022-07-29T15:42:43;29.60;53.90
12926;DHT22;6529;50.566;9.774;2022-07-29T15:45:09;29.50;54.40
12926;DHT22;6529;50.566;9.774;2022-07-29T15:47:35;29.40;55.30
12926;DHT22;6529;50.566;9.774;2022-07-29T15:50:00;29.40;55.10
12926;DHT22;6529;50.566;9.774;2022-07-29T15:52:26;29.40;55.00
12926;DHT22;6529;50.566;9.774;2022-07-29T15:54:53;29.40;56.40
12926;DHT22;6529;50.566;9.774;2022-07-29T15:57:19;29.20;54.20
12926;DHT22;6529;50.566;9.774;2022-07-29T15:59:44;29.20;56.20
12926;DHT22;6529;50.566;9.774;2022-07-29T16:02:10;29.10;56.20
12926;DHT22;6529;50.566;9.774;2022-07-29T16:04:36;29.10;55.20
12926;DHT22;6529;50.566;9.774;2022-07-29T16:07:01;28.90;57.00
12926;DHT22;6529;50.566;9.774;2022-07-29T16:09:28;28.80;57.00
12926;DHT22;6529;50.566;9.774;2022-07-29T16:11:53;28.80;58.10
12926;DHT22;6529;50.566;9.774;2022-07-29T16:14:20;28.70;58.30
12926;DHT22;6529;50.566;9.774;2022-07-29T16:16:46;28.70;58.10
12926;DHT22;6529;50.566;9.774;2022-07-29T16:19:12;28.60;58.80
12926;DHT22;6529;50.566;9.774;2022-07-29T16:21:38;28.50;59.00
12926;DHT22;6529;50.566;9.774;2022-07-29T16:24:05;28.20;70.30
12926;DHT22;6529;50.566;9.774;2022-07-29T16:26:31;27.00;95.00
12926;DHT22;6529;50.566;9.774;2022-07-29T16:28:57;25.80;99.90
12926;DHT22;6529;50.566;9.774;2022-07-29T16:31:24;24.00;99.90
12926;DHT22;6529;50.566;9.774;2022-07-29T16:33:50;22.70;99.90
12926;DHT22;6529;50.566;9.774;2022-07-29T16:36:17;22.00;99.90
12926;DHT22;6529;50.566;9.774;2022-07-29T16:38:43;21.40;99.90
12926;DHT22;6529;50.566;9.774;2022-07-29T16:41:09;20.90;99.90
12926;DHT22;6529;50.566;9.774;2022-07-29T16:43:34;20.50;99.90
12926;DHT22;6529;50.566;9.774;2022-07-29T16:46:00;20.50;99.90
12926;DHT22;6529;50.566;9.774;2022-07-29T16:50:52;20.20;99.90